Terminal Aerodrome Forecast
Issued by NWS Jackson, KY

Home | Current Version | Previous Version | Text Only | Print | Product List | Glossary On
Versions: 1 2 3 4 5 6 7 8 9 10 11 12 13 14 15 16 17 18 19
000
FTUS43 KJKL 290500
TAFLOZ
TAF
KLOZ 290534Z 2906/3006 16004KT P6SM SCT200 WS020/23040KT
     FM291500 20012G22KT P6SM SCT050
     FM292200 19006KT P6SM SCT040 WS020/23045KT=

USA.gov is the U.S. government's official web portal to all federal, state and local government web resources and services.